Time;durP1;ratioP1;P1;durP2;ratioP2;P2;SDS_P1;SDS_P2;PMS_P1;PMS_P2;Temp;Humidity;BMP_temperature;BMP_pressure;BME280_temperature;BME280_humidity;BME280_pressure;Samples;Min_cycle;Max_cycle;Signal;HPM_P1;HPM_P2
2022/03/25 00:00:32;;;;;;;;;;;;;;;5.92;86.62;103163.91;4990233;28;20302;-74
2022/03/25 00:02:57;;;;;;;;;;;;;;;5.96;87.44;103170.03;4989378;28;19973;-75
2022/03/25 00:05:23;;;;;;;;;;;;;;;5.94;87.04;103159.59;4992156;28;20335;-76
2022/03/25 00:07:48;;;;;;;;;;;;;;;5.93;87.75;103175.22;4995053;28;19918;-76
2022/03/25 00:10:13;;;;;;;;;;;;;;;5.86;87.25;103161.22;4992957;28;19960;-75
2022/03/25 00:12:39;;;;;;;;;;;;;;;5.84;87.30;103168.19;4993020;28;19990;-75
2022/03/25 00:15:04;;;;;;;;;;;;;;;5.83;86.89;103161.22;4993521;28;20026;-74
2022/03/25 00:17:30;;;;;;;;;;;;;;;5.82;87.19;103155.09;4993516;28;20024;-76
2022/03/25 00:19:55;;;;;;;;;;;;;;;5.81;87.19;103162.94;4993992;28;20004;-76
2022/03/25 00:22:20;;;;;;;;;;;;;;;5.77;87.01;103164.63;4993011;28;19930;-75
2022/03/25 00:24:46;;;;;;;;;;;;;;;5.75;87.37;103155.91;4994658;28;19971;-74
2022/03/25 00:27:11;;;;;;;;;;;;;;;5.72;87.07;103159.38;4995303;28;19925;-77
2022/03/25 00:29:37;;;;;;;;;;;;;;;5.71;87.42;103161.94;4994654;28;20397;-77
2022/03/25 00:32:02;;;;;;;;;;;;;;;5.66;88.00;103163.63;4994848;28;19930;-73
2022/03/25 00:34:28;;;;;;;;;;;;;;;5.64;87.38;103165.34;4993539;28;19942;-75
2022/03/25 00:36:53;;;;;;;;;;;;;;;5.62;87.56;103172.28;4995970;28;19984;-75
2022/03/25 00:39:18;;;;;;;;;;;;;;;5.62;88.22;103167.94;4994027;28;20376;-76
2022/03/25 00:41:44;;;;;;;;;;;;;;;5.59;89.02;103167.91;4993914;28;20008;-76
2022/03/25 00:44:10;;;;;;;;;;;;;;;5.54;89.06;103164.34;4994456;28;19925;-77
2022/03/25 00:46:35;;;;;;;;;;;;;;;5.51;89.75;103164.34;4975733;28;20052;-76
2022/03/25 00:49:00;;;;;;;;;;;;;;;5.47;89.76;103159.94;4991748;28;19917;-74
2022/03/25 00:51:26;;;;;;;;;;;;;;;5.44;90.21;103157.28;4991313;28;20024;-75
2022/03/25 00:53:51;;;;;;;;;;;;;;;5.41;90.43;103160.72;4992993;28;20361;-76
2022/03/25 00:56:17;;;;;;;;;;;;;;;5.33;90.22;103158.03;4990478;28;20296;-74
2022/03/25 00:58:42;;;;;;;;;;;;;;;5.31;90.53;103156.25;4980983;28;20029;-75
2022/03/25 01:01:07;;;;;;;;;;;;;;;5.29;90.47;103158.84;4981015;28;19961;-74
2022/03/25 01:03:34;;;;;;;;;;;;;;;5.25;90.80;103157.91;4992694;28;19922;-77
2022/03/25 01:06:00;;;;;;;;;;;;;;;5.18;90.80;103150.88;4992827;28;19929;-76
2022/03/25 01:08:27;;;;;;;;;;;;;;;5.17;91.03;103159.56;4991630;28;20281;-74
2022/03/25 01:10:52;;;;;;;;;;;;;;;5.16;91.23;103155.19;4994780;28;20427;-75
2022/03/25 01:13:18;;;;;;;;;;;;;;;5.15;91.20;103152.59;4992886;28;20032;-75
2022/03/25 01:15:43;;;;;;;;;;;;;;;5.14;91.52;103153.44;4992942;28;19922;-75
2022/03/25 01:18:09;;;;;;;;;;;;;;;5.09;91.59;103151.63;4992103;28;20300;-75
2022/03/25 01:20:34;;;;;;;;;;;;;;;5.08;91.81;103149.00;4992166;28;20032;-77
2022/03/25 01:23:00;;;;;;;;;;;;;;;5.06;91.74;103161.13;4993725;28;19925;-75
2022/03/25 01:25:25;;;;;;;;;;;;;;;5.03;91.62;103156.78;4991493;28;20028;-75
2022/03/25 01:27:51;;;;;;;;;;;;;;;5.03;92.25;103156.78;4992170;28;19931;-77
2022/03/25 01:30:16;;;;;;;;;;;;;;;5.00;92.25;103164.53;5008547;28;19952;-76
2022/03/25 01:32:41;;;;;;;;;;;;;;;4.94;92.73;103157.50;4992628;28;20029;-75
2022/03/25 01:35:09;;;;;;;;;;;;;;;4.89;92.90;103158.28;4992475;28;19925;-74
2022/03/25 01:37:34;;;;;;;;;;;;;;;4.88;93.13;103156.53;4993234;28;20033;-75
2022/03/25 01:39:59;;;;;;;;;;;;;;;4.78;93.33;103159.00;4992701;28;19929;-75
2022/03/25 01:42:34;;;;;;;;;;;;;;;4.75;93.63;103148.53;4991377;28;20496;-76
2022/03/25 01:44:59;;;;;;;;;;;;;;;4.73;93.63;103152.88;4993904;28;19924;-76
2022/03/25 01:47:28;;;;;;;;;;;;;;;4.75;94.45;103145.94;4991789;28;19921;-75
2022/03/25 01:49:54;;;;;;;;;;;;;;;4.69;94.56;103151.06;4993913;28;19917;-77
2022/03/25 01:52:20;;;;;;;;;;;;;;;4.72;94.64;103152.81;4991944;28;19925;-76
2022/03/25 01:54:46;;;;;;;;;;;;;;;4.68;94.73;103149.31;4991731;28;19922;-75
2022/03/25 01:57:12;;;;;;;;;;;;;;;4.68;94.92;103148.44;4990878;28;20407;-75
2022/03/25 01:59:37;;;;;;;;;;;;;;;4.66;95.01;103151.00;4989949;28;19918;-74
2022/03/25 02:02:03;;;;;;;;;;;;;;;4.63;95.73;103151.84;4990127;28;20289;-75
2022/03/25 02:04:29;;;;;;;;;;;;;;;4.55;95.44;103147.34;4991880;28;20662;-74
2022/03/25 02:06:54;;;;;;;;;;;;;;;4.54;95.44;103151.69;4974325;28;19925;-75
2022/03/25 02:09:19;;;;;;;;;;;;;;;4.54;95.33;103149.09;4990713;28;22138;-76
2022/03/25 02:11:45;;;;;;;;;;;;;;;4.51;95.51;103150.78;4973845;28;19918;-75
2022/03/25 02:14:11;;;;;;;;;;;;;;;4.45;95.25;103152.41;4991306;28;19945;-75
2022/03/25 02:16:38;;;;;;;;;;;;;;;4.47;95.49;103150.72;4992180;28;19921;-74
2022/03/25 02:19:04;;;;;;;;;;;;;;;4.44;95.53;103155.00;4991303;28;19917;-74
2022/03/25 02:21:31;;;;;;;;;;;;;;;4.43;95.95;103154.13;4990043;28;19918;-75
2022/03/25 02:23:56;;;;;;;;;;;;;;;4.41;95.65;103147.16;4993165;28;19922;-76
2022/03/25 02:26:22;;;;;;;;;;;;;;;4.37;96.01;103151.44;4996738;28;19924;-75
2022/03/25 02:28:47;;;;;;;;;;;;;;;4.32;95.93;103156.56;5007723;28;20331;-76
2022/03/25 02:31:14;;;;;;;;;;;;;;;4.32;96.37;103155.66;4993958;28;19918;-77
2022/03/25 02:33:39;;;;;;;;;;;;;;;4.32;96.56;103142.66;5006179;28;19926;-73
2022/03/25 02:36:05;;;;;;;;;;;;;;;4.33;96.05;103140.09;5012470;28;19921;-75
2022/03/25 02:38:30;;;;;;;;;;;;;;;4.29;96.55;103145.22;5011115;28;19952;-75
2022/03/25 02:40:56;;;;;;;;;;;;;;;4.26;96.48;103139.97;5011249;28;19921;-76
2022/03/25 02:43:21;;;;;;;;;;;;;;;4.23;96.46;103140.78;5009309;28;19917;-76
2022/03/25 02:45:46;;;;;;;;;;;;;;;4.22;96.60;103143.34;5009610;28;19918;-75
2022/03/25 02:48:12;;;;;;;;;;;;;;;4.22;96.70;103133.84;5009022;28;19917;-75
2022/03/25 02:50:37;;;;;;;;;;;;;;;4.22;96.89;103140.75;5010762;28;19953;-76
2022/03/25 02:53:03;;;;;;;;;;;;;;;4.19;96.97;103133.78;5011468;28;20008;-75
2022/03/25 02:55:28;;;;;;;;;;;;;;;4.20;96.58;103137.25;5012115;28;19921;-76
2022/03/25 02:57:54;;;;;;;;;;;;;;;4.16;97.10;103139.81;5002816;28;19918;-75
2022/03/25 03:00:20;;;;;;;;;;;;;;;4.14;97.07;103146.72;4990457;28;19970;-74
2022/03/25 03:02:46;;;;;;;;;;;;;;;4.15;97.40;103144.97;5002386;28;19925;-74
2022/03/25 03:05:11;;;;;;;;;;;;;;;4.17;97.68;103143.28;4992011;28;19918;-75
2022/03/25 03:07:37;;;;;;;;;;;;;;;4.10;97.61;103141.44;4991654;28;20369;-75
2022/03/25 03:10:03;;;;;;;;;;;;;;;4.08;98.05;103140.50;5010031;28;19956;-74
2022/03/25 03:12:28;;;;;;;;;;;;;;;4.09;98.04;103139.66;5010011;28;19917;-75
2022/03/25 03:14:55;;;;;;;;;;;;;;;4.01;98.20;103142.13;5010371;28;19928;-75
2022/03/25 03:17:21;;;;;;;;;;;;;;;3.98;98.03;103147.25;5009764;28;19981;-75
2022/03/25 03:19:46;;;;;;;;;;;;;;;3.96;98.56;103138.59;5010169;28;19917;-76
2022/03/25 03:22:12;;;;;;;;;;;;;;;3.96;98.31;103138.59;5010297;28;20016;-75
2022/03/25 03:24:37;;;;;;;;;;;;;;;3.97;98.58;103136.00;5027417;28;19918;-75
2022/03/25 03:27:03;;;;;;;;;;;;;;;3.96;98.78;103135.97;5029857;28;20426;-74
2022/03/25 03:29:28;;;;;;;;;;;;;;;3.92;98.78;103131.56;5020255;28;20008;-75
2022/03/25 03:31:54;;;;;;;;;;;;;;;3.95;98.76;103134.22;5009901;28;19967;-75
2022/03/25 03:34:20;;;;;;;;;;;;;;;3.94;98.74;103138.53;4990638;28;19997;-74
2022/03/25 03:36:45;;;;;;;;;;;;;;;3.90;98.57;103133.25;4990850;28;19926;-74
2022/03/25 03:39:11;;;;;;;;;;;;;;;3.84;98.94;103134.91;4990930;28;19925;-74
2022/03/25 03:41:36;;;;;;;;;;;;;;;3.92;99.34;103131.56;4991363;28;20004;-75
2022/03/25 03:44:02;;;;;;;;;;;;;;;3.98;99.62;103134.25;4991215;28;19966;-75
2022/03/25 03:46:27;;;;;;;;;;;;;;;3.98;99.55;103131.66;4991169;28;19921;-75
2022/03/25 03:48:52;;;;;;;;;;;;;;;3.96;99.33;103135.97;4991214;28;19918;-75
2022/03/25 03:51:17;;;;;;;;;;;;;;;3.92;99.59;103126.38;4991414;28;19925;-75
2022/03/25 03:53:43;;;;;;;;;;;;;;;3.89;99.79;103128.91;4990825;28;20403;-74
2022/03/25 03:56:08;;;;;;;;;;;;;;;3.81;99.82;103131.34;4990819;28;19926;-75
2022/03/25 03:58:33;;;;;;;;;;;;;;;3.98;100.00;103127.34;4972724;28;19918;-74
2022/03/25 04:00:59;;;;;;;;;;;;;;;3.92;100.00;103128.97;4990607;28;19918;-75
2022/03/25 04:03:25;;;;;;;;;;;;;;;3.82;100.00;103120.09;4990855;28;19957;-75
2022/03/25 04:05:50;;;;;;;;;;;;;;;3.83;100.00;103125.34;4990580;28;20005;-75
2022/03/25 04:08:15;;;;;;;;;;;;;;;3.78;100.00;103126.97;4991105;28;19922;-75
2022/03/25 04:10:41;;;;;;;;;;;;;;;3.83;100.00;103135.75;4973501;28;19926;-74
2022/03/25 04:13:07;;;;;;;;;;;;;;;3.77;100.00;103137.34;4991217;28;20334;-77
2022/03/25 04:15:32;;;;;;;;;;;;;;;3.81;100.00;103139.16;4992235;28;19957;-75
2022/03/25 04:17:58;;;;;;;;;;;;;;;3.83;100.00;103146.16;4991734;28;19922;-76
2022/03/25 04:20:23;;;;;;;;;;;;;;;3.80;100.00;103143.50;4991341;28;19928;-75
2022/03/25 04:22:49;;;;;;;;;;;;;;;3.82;100.00;103140.91;4993386;28;20468;-76
2022/03/25 04:25:14;;;;;;;;;;;;;;;3.82;100.00;103141.81;4994706;28;20012;-75
2022/03/25 04:27:55;;;;;;;;;;;;;;;3.83;100.00;103140.06;5010126;28;19945;-75
2022/03/25 04:30:21;;;;;;;;;;;;;;;3.79;100.00;103146.06;5013765;28;20059;-75
2022/03/25 04:32:47;;;;;;;;;;;;;;;3.72;100.00;103145.94;4996989;28;19926;-76
2022/03/25 04:35:12;;;;;;;;;;;;;;;3.74;100.00;103134.69;5010598;28;20399;-76
2022/03/25 04:37:38;;;;;;;;;;;;;;;3.71;100.00;103138.13;5010717;28;19917;-76
2022/03/25 04:40:04;;;;;;;;;;;;;;;3.71;100.00;103138.13;4994622;28;20296;-75
2022/03/25 04:42:29;;;;;;;;;;;;;;;3.68;100.00;103138.06;4993982;28;19989;-75
2022/03/25 04:44:55;;;;;;;;;;;;;;;3.59;100.00;103145.69;4994878;28;19918;-76
2022/03/25 04:47:20;;;;;;;;;;;;;;;3.58;100.00;103147.41;4994003;28;19925;-75
2022/03/25 04:49:45;;;;;;;;;;;;;;;3.65;100.00;103154.47;4993426;28;19929;-75
2022/03/25 04:52:11;;;;;;;;;;;;;;;3.70;100.00;103158.03;4980231;28;20250;-75
2022/03/25 04:54:36;;;;;;;;;;;;;;;3.74;100.00;103159.00;4991614;28;19921;-75
2022/03/25 04:57:02;;;;;;;;;;;;;;;3.75;100.00;103152.91;4993810;28;20002;-74
2022/03/25 04:59:27;;;;;;;;;;;;;;;3.73;100.00;103154.63;4994375;28;19922;-75
2022/03/25 05:01:52;;;;;;;;;;;;;;;3.65;100.00;103156.19;4992134;28;19952;-75
2022/03/25 05:04:18;;;;;;;;;;;;;;;3.61;100.00;103162.19;4993559;28;19941;-75
2022/03/25 05:06:43;;;;;;;;;;;;;;;3.68;100.00;103164.94;4994066;28;20335;-75
2022/03/25 05:09:10;;;;;;;;;;;;;;;3.60;100.00;103163.88;4993648;28;19949;-76
2022/03/25 05:11:36;;;;;;;;;;;;;;;3.62;100.00;103159.59;4994912;28;20020;-75
2022/03/25 05:14:02;;;;;;;;;;;;;;;3.63;100.00;103163.09;4994125;28;19925;-75
2022/03/25 05:16:27;;;;;;;;;;;;;;;3.61;100.00;103164.78;4993442;28;20285;-76
2022/03/25 05:18:52;;;;;;;;;;;;;;;3.61;100.00;103160.44;4991442;28;20024;-76
2022/03/25 05:21:17;;;;;;;;;;;;;;;3.64;100.00;103154.47;4991902;28;20409;-77
2022/03/25 05:23:43;;;;;;;;;;;;;;;3.60;100.00;103152.63;4990326;28;19922;-76
2022/03/25 05:26:08;;;;;;;;;;;;;;;3.64;100.00;103155.31;4992387;28;20008;-76
2022/03/25 05:28:34;;;;;;;;;;;;;;;3.65;100.00;103154.47;4991821;28;19922;-77
2022/03/25 05:30:59;;;;;;;;;;;;;;;3.64;100.00;103157.91;4992607;28;20473;-77
2022/03/25 05:33:24;;;;;;;;;;;;;;;3.60;100.00;103165.63;5001866;28;20386;-77
2022/03/25 05:35:50;;;;;;;;;;;;;;;3.56;100.00;103162.09;5008653;28;19921;-74
2022/03/25 05:38:15;;;;;;;;;;;;;;;3.64;100.00;103159.66;5008842;28;19987;-73
2022/03/25 05:40:40;;;;;;;;;;;;;;;3.66;100.00;103157.94;5008388;28;20599;-73
2022/03/25 05:43:07;;;;;;;;;;;;;;;3.64;100.00;103163.13;5008466;28;20004;-73
2022/03/25 05:45:33;;;;;;;;;;;;;;;3.69;100.00;103160.59;5009032;28;19917;-72
2022/03/25 05:47:58;;;;;;;;;;;;;;;3.75;100.00;103165.91;5006956;28;19968;-74
2022/03/25 05:50:23;;;;;;;;;;;;;;;3.85;100.00;103166.97;5009116;28;19925;-73
2022/03/25 05:52:48;;;;;;;;;;;;;;;3.89;100.00;103175.72;5009303;28;20544;-73
2022/03/25 05:55:14;;;;;;;;;;;;;;;3.98;100.00;103181.06;5008813;28;19936;-72
2022/03/25 05:57:40;;;;;;;;;;;;;;;4.09;100.00;103186.50;4990848;28;19925;-73
2022/03/25 06:00:20;;;;;;;;;;;;;;;4.14;100.00;103183.13;4992469;28;19921;-72
2022/03/25 06:02:45;;;;;;;;;;;;;;;4.23;100.00;103187.63;5008928;28;19929;-72
2022/03/25 06:05:11;;;;;;;;;;;;;;;4.28;100.00;103185.09;5009410;28;20285;-77
2022/03/25 06:07:37;;;;;;;;;;;;;;;4.32;100.00;103192.09;5007861;28;19967;-73
2022/03/25 06:10:03;;;;;;;;;;;;;;;4.37;100.00;103184.38;5008126;28;20001;-74
2022/03/25 06:12:28;;;;;;;;;;;;;;;4.43;100.00;103184.50;5011115;28;19992;-73
2022/03/25 06:14:53;;;;;;;;;;;;;;;4.47;100.00;103194.97;5009197;28;19928;-73
2022/03/25 06:17:19;;;;;;;;;;;;;;;4.54;100.00;103201.16;5007294;28;19925;-74
2022/03/25 06:19:44;;;;;;;;;;;;;;;4.59;100.00;103196.91;5008566;28;19925;-73
2022/03/25 06:22:10;;;;;;;;;;;;;;;4.63;100.00;103190.03;5007639;28;19921;-73
2022/03/25 06:24:35;;;;;;;;;;;;;;;4.69;100.00;103191.84;5004371;28;19922;-73
2022/03/25 06:27:00;;;;;;;;;;;;;;;4.74;100.00;103193.66;4997109;28;19975;-73
2022/03/25 06:29:25;;;;;;;;;;;;;;;4.80;100.00;103185.97;5005710;28;19924;-74
2022/03/25 06:31:51;;;;;;;;;;;;;;;4.88;100.00;103188.69;5002960;28;19944;-74
2022/03/25 06:34:20;;;;;;;;;;;;;;;4.93;100.00;103200.03;5007475;28;20384;-74
2022/03/25 06:36:47;;;;;;;;;;;;;;;4.99;100.00;103199.25;5008278;28;19925;-74
2022/03/25 06:39:12;;;;;;;;;;;;;;;5.06;100.00;103192.41;5007835;28;19925;-74
2022/03/25 06:41:37;;;;;;;;;;;;;;;5.15;100.00;103194.28;5007774;28;19922;-74
2022/03/25 06:44:03;;;;;;;;;;;;;;;5.24;100.00;103197.00;5007480;28;19922;-73
2022/03/25 06:46:28;;;;;;;;;;;;;;;5.33;100.00;103202.34;5009754;28;19917;-73
2022/03/25 06:48:53;;;;;;;;;;;;;;;5.41;100.00;103205.06;5016481;28;20392;-74
2022/03/25 06:51:19;;;;;;;;;;;;;;;5.49;100.00;103212.97;5027628;28;19928;-74
2022/03/25 06:53:44;;;;;;;;;;;;;;;5.60;100.00;103207.88;5027657;28;19918;-73
2022/03/25 06:56:10;;;;;;;;;;;;;;;5.67;100.00;103221.03;5025462;28;19922;-73
2022/03/25 06:58:37;;;;;;;;;;;;;;;5.75;100.00;103215.91;5008557;28;20469;-74
2022/03/25 07:01:03;;;;;;;;;;;;;;;5.87;100.00;103225.59;5007437;28;20526;-74
2022/03/25 07:03:28;;;;;;;;;;;;;;;5.88;100.00;103223.03;5009793;28;19961;-75
2022/03/25 07:05:56;;;;;;;;;;;;;;;5.96;100.00;103228.31;5008525;28;20012;-75
2022/03/25 07:08:22;;;;;;;;;;;;;;;6.09;100.00;103231.97;5008773;28;19921;-75
2022/03/25 07:10:48;;;;;;;;;;;;;;;6.08;100.00;103219.78;5009071;28;19959;-75
2022/03/25 07:13:13;;;;;;;;;;;;;;;6.24;100.00;103228.66;5007839;28;20329;-75
2022/03/25 07:15:39;;;;;;;;;;;;;;;6.25;100.00;103233.00;5003194;28;19926;-75
2022/03/25 07:18:04;;;;;;;;;;;;;;;6.45;100.00;103234.94;5008089;28;19925;-74
2022/03/25 07:20:29;;;;;;;;;;;;;;;6.43;100.00;103231.44;4991036;28;19921;-75
2022/03/25 07:22:55;;;;;;;;;;;;;;;6.68;99.63;103235.13;5007974;28;19957;-73
2022/03/25 07:25:20;;;;;;;;;;;;;;;6.72;99.63;103238.66;5008565;28;19931;-74
2022/03/25 07:27:46;;;;;;;;;;;;;;;6.73;98.80;103238.66;5025201;28;20058;-76
2022/03/25 07:30:12;;;;;;;;;;;;;;;6.63;99.00;103247.28;5026944;28;19943;-75
2022/03/25 07:32:38;;;;;;;;;;;;;;;6.64;99.12;103252.53;5001749;28;19932;-75
2022/03/25 07:35:03;;;;;;;;;;;;;;;6.63;99.06;103258.59;5010416;28;19922;-75
2022/03/25 07:37:29;;;;;;;;;;;;;;;6.73;98.81;103253.44;5030194;28;20275;-73
2022/03/25 07:39:54;;;;;;;;;;;;;;;6.68;98.36;103247.31;5012854;28;19925;-73
2022/03/25 07:42:19;;;;;;;;;;;;;;;6.73;98.74;103258.69;5007385;28;19925;-73
2022/03/25 07:44:45;;;;;;;;;;;;;;;6.85;98.81;103255.31;5007669;28;19918;-73
2022/03/25 07:47:12;;;;;;;;;;;;;;;6.89;98.10;103246.63;5008106;28;19956;-73
2022/03/25 07:49:39;;;;;;;;;;;;;;;6.96;98.04;103244.06;5006787;28;20340;-74
2022/03/25 07:52:05;;;;;;;;;;;;;;;7.05;98.04;103253.72;5007697;28;19917;-72
2022/03/25 07:54:30;;;;;;;;;;;;;;;7.10;97.45;103253.75;5009852;28;20375;-75
2022/03/25 07:56:58;;;;;;;;;;;;;;;7.20;95.80;103254.69;5008157;28;19933;-73
2022/03/25 07:59:24;;;;;;;;;;;;;;;7.34;95.19;103262.63;5011832;28;19918;-74
2022/03/25 08:01:49;;;;;;;;;;;;;;;7.42;94.90;103264.41;5010570;28;19932;-73
2022/03/25 08:04:15;;;;;;;;;;;;;;;7.53;93.08;103264.47;5011236;28;19922;-75
2022/03/25 08:06:41;;;;;;;;;;;;;;;7.67;92.51;103261.03;5010345;28;20012;-72
2022/03/25 08:09:06;;;;;;;;;;;;;;;7.67;92.61;103264.53;5009518;28;20033;-75
2022/03/25 08:11:32;;;;;;;;;;;;;;;7.75;91.92;103261.94;5013032;28;19967;-74
2022/03/25 08:13:57;;;;;;;;;;;;;;;7.91;91.56;103267.25;5011052;28;20012;-74
2022/03/25 08:16:22;;;;;;;;;;;;;;;8.16;89.95;103263.81;5011714;28;20415;-74
2022/03/25 08:18:48;;;;;;;;;;;;;;;8.29;88.79;103261.22;5011322;28;20274;-72
2022/03/25 08:21:14;;;;;;;;;;;;;;;8.26;86.88;103258.63;5009414;28;19924;-73
2022/03/25 08:29:01;;;;;;;;;;;;;;;8.60;82.31;103243.00;5010374;28;20266;-75
2022/03/25 08:31:28;;;;;;;;;;;;;;;8.69;82.01;103236.84;5004360;28;19927;-74
2022/03/25 08:33:53;;;;;;;;;;;;;;;9.08;79.28;103224.59;4994558;28;19930;-75
2022/03/25 08:36:18;;;;;;;;;;;;;;;10.18;73.41;103203.09;4991537;28;20288;-73
2022/03/25 08:38:44;;;;;;;;;;;;;;;11.46;67.93;103180.00;4990191;28;19925;-74
2022/03/25 08:41:10;;;;;;;;;;;;;;;12.24;63.57;103149.94;4991826;28;19918;-74
2022/03/25 08:43:36;;;;;;;;;;;;;;;13.31;59.17;103148.78;4993426;28;19958;-74
2022/03/25 08:46:01;;;;;;;;;;;;;;;13.22;57.73;103149.00;4990362;28;19918;-73
2022/03/25 08:48:27;;;;;;;;;;;;;;;14.33;54.42;103135.84;4993508;28;19918;-74
2022/03/25 08:50:53;;;;;;;;;;;;;;;14.48;53.04;103139.03;4991367;28;20373;-74
2022/03/25 08:53:18;;;;;;;;;;;;;;;14.56;52.91;103247.28;4973894;28;19940;-74
2022/03/25 08:55:44;;;;;;;;;;;;;;;15.57;50.29;103248.13;4990846;28;20559;-72
2022/03/25 08:58:09;;;;;;;;;;;;;;;15.09;48.75;103262.72;4990990;28;19929;-71
2022/03/25 09:00:35;;;;;;;;;;;;;;;15.32;47.83;103266.53;4991917;28;20314;-73
2022/03/25 09:03:00;;;;;;;;;;;;;;;15.09;46.47;103265.38;4990269;28;19926;-73
2022/03/25 09:05:25;;;;;;;;;;;;;;;15.12;45.84;103259.97;4992008;28;20347;-73
2022/03/25 09:07:50;;;;;;;;;;;;;;;16.07;44.63;103263.47;4973776;28;19926;-74
2022/03/25 09:10:16;;;;;;;;;;;;;;;16.13;45.22;103276.50;4990074;28;19922;-74
2022/03/25 09:12:42;;;;;;;;;;;;;;;18.02;41.03;103266.44;4991871;28;19924;-74
2022/03/25 09:15:07;;;;;;;;;;;;;;;18.68;38.75;103274.38;4991103;28;20008;-74
2022/03/25 09:17:33;;;;;;;;;;;;;;;17.93;38.10;103272.97;4991759;28;19918;-74
2022/03/25 09:19:58;;;;;;;;;;;;;;;16.58;40.51;103280.41;4991191;28;19926;-73
2022/03/25 09:22:24;;;;;;;;;;;;;;;16.36;40.79;103288.19;4990877;28;19918;-74
2022/03/25 09:24:49;;;;;;;;;;;;;;;16.88;40.48;103282.06;4990927;28;19949;-74
2022/03/25 09:27:15;;;;;;;;;;;;;;;16.60;40.86;103283.84;4995020;28;19929;-73
2022/03/25 09:29:40;;;;;;;;;;;;;;;16.75;41.03;103281.63;4999382;28;20013;-73
2022/03/25 09:32:05;;;;;;;;;;;;;;;16.46;42.13;103272.84;4980909;28;19929;-73
2022/03/25 09:37:11;;;;;;;;;;;;;;;17.74;39.37;103272.78;5009501;28;19956;-76
2022/03/25 09:39:36;;;;;;;;;;;;;;;17.19;40.26;103271.25;5010128;28;19921;-73
2022/03/25 09:42:04;;;;;;;;;;;;;;;17.80;40.22;103269.03;4990022;28;19930;-73
2022/03/25 09:44:30;;;;;;;;;;;;;;;17.27;40.86;103268.34;4966497;28;20427;-73
2022/03/25 09:46:55;;;;;;;;;;;;;;;18.59;36.55;103261.47;4951334;28;19919;-75
2022/03/25 09:49:21;;;;;;;;;;;;;;;18.08;37.88;103268.84;4969690;28;19919;-74
2022/03/25 09:51:46;;;;;;;;;;;;;;;18.35;36.50;103258.88;4970539;28;19925;-73
2022/03/25 09:54:13;;;;;;;;;;;;;;;18.25;37.59;103270.84;4980703;28;19918;-72
2022/03/25 09:56:38;;;;;;;;;;;;;;;19.35;36.54;103260.84;4991246;28;20389;-72
2022/03/25 09:59:04;;;;;;;;;;;;;;;18.52;36.27;103266.16;4988880;28;19924;-72
2022/03/25 10:01:29;;;;;;;;;;;;;;;18.06;34.87;103265.38;4991775;28;19918;-73
2022/03/25 10:03:55;;;;;;;;;;;;;;;17.31;37.63;103277.91;4974479;28;19926;-71
2022/03/25 10:06:20;;;;;;;;;;;;;;;18.99;34.72;103269.56;4970561;28;20004;-71
2022/03/25 10:08:54;;;;;;;;;;;;;;;18.55;34.82;103275.81;4971020;28;19972;-73
2022/03/25 10:11:20;;;;;;;;;;;;;;;18.27;34.38;103274.31;4969637;28;19922;-72
2022/03/25 10:13:45;;;;;;;;;;;;;;;16.99;36.58;103283.47;4969625;28;19968;-72
2022/03/25 10:16:26;;;;;;;;;;;;;;;16.62;37.47;103276.72;4969690;28;19930;-73
2022/03/25 10:18:52;;;;;;;;;;;;;;;16.73;36.44;103284.34;4970300;28;19937;-74
2022/03/25 10:21:17;;;;;;;;;;;;;;;16.01;38.71;103280.44;4969571;28;19945;-73
2022/03/25 10:23:44;;;;;;;;;;;;;;;17.40;36.29;103269.63;4978779;28;19918;-72
2022/03/25 10:26:09;;;;;;;;;;;;;;;18.55;34.54;103267.84;4992252;28;19917;-71
2022/03/25 10:28:44;;;;;;;;;;;;;;;17.79;35.55;103268.19;5000609;28;20337;-73
2022/03/25 10:31:13;;;;;;;;;;;;;;;18.01;33.64;103267.38;4987983;28;19929;-73
2022/03/25 10:33:57;;;;;;;;;;;;;;;18.08;34.22;103268.84;5008539;28;19925;-72
2022/03/25 10:36:25;;;;;;;;;;;;;;;18.60;34.33;103265.84;5028059;28;20309;-72
2022/03/25 10:38:54;;;;;;;;;;;;;;;18.22;33.79;103265.63;5029325;28;20373;-71
2022/03/25 10:41:22;;;;;;;;;;;;;;;18.19;34.22;103268.44;5027766;28;20277;-72
2022/03/25 10:43:47;;;;;;;;;;;;;;;17.91;34.21;103264.16;5029687;28;19921;-72
2022/03/25 10:46:27;;;;;;;;;;;;;;;17.23;34.76;103258.72;5028061;28;19921;-72
2022/03/25 10:48:53;;;;;;;;;;;;;;;17.89;34.35;103260.69;5011228;28;20398;-72
2022/03/25 10:51:19;;;;;;;;;;;;;;;17.62;34.53;103258.19;5027959;28;20016;-72
2022/03/25 10:53:47;;;;;;;;;;;;;;;17.91;35.48;103266.81;5044493;28;19921;-73
2022/03/25 10:56:13;;;;;;;;;;;;;;;17.69;34.86;103262.34;5042972;28;19928;-72
2022/03/25 10:58:38;;;;;;;;;;;;;;;16.61;36.70;103277.63;5031032;28;20289;-72
2022/03/25 11:01:05;;;;;;;;;;;;;;;15.88;37.96;103271.97;5014336;28;19952;-72
2022/03/25 11:03:31;;;;;;;;;;;;;;;15.13;39.11;103277.59;5009896;28;19925;-73
2022/03/25 11:05:56;;;;;;;;;;;;;;;15.08;40.06;103287.47;5009283;28;19924;-73
2022/03/25 11:08:21;;;;;;;;;;;;;;;14.94;40.14;103279.84;5007551;28;19958;-71
2022/03/25 11:10:47;;;;;;;;;;;;;;;14.79;40.55;103283.78;5009074;28;20615;-73
2022/03/25 11:13:13;;;;;;;;;;;;;;;14.21;41.31;103284.25;4989381;28;20368;-72
2022/03/25 11:15:39;;;;;;;;;;;;;;;14.03;41.21;103278.47;5009411;28;20287;-72
2022/03/25 11:18:05;;;;;;;;;;;;;;;13.99;41.90;103287.38;4990206;28;19949;-72
2022/03/25 11:20:30;;;;;;;;;;;;;;;13.83;43.00;103278.91;5011409;28;19925;-72
2022/03/25 11:23:11;;;;;;;;;;;;;;;13.99;42.33;103274.16;5008771;28;20285;-72
2022/03/25 11:25:40;;;;;;;;;;;;;;;14.16;42.93;103283.47;5008207;28;19918;-72
2022/03/25 11:28:07;;;;;;;;;;;;;;;14.12;42.12;103273.88;4992898;28;19918;-72
2022/03/25 11:30:35;;;;;;;;;;;;;;;14.26;41.58;103277.06;5008556;28;19965;-72
2022/03/25 11:33:03;;;;;;;;;;;;;;;13.98;42.45;103277.72;4991321;28;20021;-73
2022/03/25 11:35:30;;;;;;;;;;;;;;;14.07;42.06;103273.97;4976291;28;19930;-72
2022/03/25 11:38:11;;;;;;;;;;;;;;;14.21;42.39;103278.97;4978076;28;20021;-72
2022/03/25 11:40:39;;;;;;;;;;;;;;;14.18;41.42;103276.38;4975702;28;19919;-73
2022/03/25 11:43:12;;;;;;;;;;;;;;;13.74;42.44;103271.16;4975757;28;19973;-72
2022/03/25 11:45:37;;;;;;;;;;;;;;;13.80;41.44;103267.53;4975941;28;19919;-72
2022/03/25 11:48:04;;;;;;;;;;;;;;;13.70;42.75;103273.00;4976509;28;19919;-73
2022/03/25 11:50:32;;;;;;;;;;;;;;;13.68;42.85;103268.66;4975571;28;20473;-72
2022/03/25 11:52:58;;;;;;;;;;;;;;;13.95;43.60;103276.88;4976477;28;19918;-73
2022/03/25 11:55:23;;;;;;;;;;;;;;;13.80;43.77;103273.69;4975370;28;19922;-72
2022/03/25 11:57:49;;;;;;;;;;;;;;;13.72;43.06;103271.22;4976166;28;20067;-73
2022/03/25 12:00:23;;;;;;;;;;;;;;;13.98;43.33;103271.53;4982087;28;19929;-73
2022/03/25 12:03:04;;;;;;;;;;;;;;;13.88;42.67;103266.47;4992776;28;20289;-73
2022/03/25 12:05:29;;;;;;;;;;;;;;;13.84;42.76;103278.00;4973988;28;20076;-72
2022/03/25 12:08:09;;;;;;;;;;;;;;;13.96;42.75;103265.41;4976494;28;20005;-72
2022/03/25 12:10:50;;;;;;;;;;;;;;;13.74;43.63;103269.41;4974920;28;19928;-72
2022/03/25 12:13:16;;;;;;;;;;;;;;;13.69;44.24;103273.91;5005673;28;19925;-73
2022/03/25 12:15:45;;;;;;;;;;;;;;;13.46;44.21;103279.66;4976026;28;19922;-72
2022/03/25 12:18:26;;;;;;;;;;;;;;;13.57;43.60;103271.50;4975591;28;20075;-72
2022/03/25 12:20:51;;;;;;;;;;;;;;;13.74;43.45;103269.41;4975736;28;19926;-72
2022/03/25 12:23:16;;;;;;;;;;;;;;;13.53;43.90;103268.06;4981063;28;19918;-72
2022/03/25 12:25:42;;;;;;;;;;;;;;;13.71;44.49;103269.47;4995061;28;20296;-72
2022/03/25 12:28:08;;;;;;;;;;;;;;;13.58;44.35;103262.69;4994630;28;19921;-72
2022/03/25 12:30:35;;;;;;;;;;;;;;;13.64;45.41;103262.59;4995789;28;19918;-73
2022/03/25 12:33:05;;;;;;;;;;;;;;;13.67;44.65;103262.50;4998357;28;19926;-73
2022/03/25 12:35:31;;;;;;;;;;;;;;;13.59;44.48;103253.88;5013903;28;19922;-72
2022/03/25 12:38:04;;;;;;;;;;;;;;;13.53;45.65;103259.28;5013835;28;19937;-72
2022/03/25 12:40:30;;;;;;;;;;;;;;;13.50;45.04;103259.34;5013133;28;20312;-72
2022/03/25 12:42:58;;;;;;;;;;;;;;;13.44;44.59;103255.94;5013312;28;19974;-73